createdAt,value
2022-11-19T13:04:30.294Z,82.04
2022-11-19T13:05:31.333Z,82.71
2022-11-19T13:06:31.220Z,82.43
2022-11-19T13:07:31.431Z,82.29
2022-11-19T13:08:31.193Z,82.24
2022-11-19T13:09:31.269Z,82.28
2022-11-19T13:10:31.167Z,82.21
2022-11-19T13:11:31.228Z,82.21
2022-11-19T13:12:31.136Z,82.22
2022-11-19T13:13:31.197Z,82.31
2022-11-19T13:14:31.124Z,82.42
2022-11-19T13:15:31.171Z,82.57
2022-11-19T13:16:31.083Z,82.64
2022-11-19T13:17:31.153Z,82.64
2022-11-19T13:18:31.054Z,82.78
2022-11-19T13:19:31.120Z,82.89
2022-11-19T13:20:31.029Z,82.94
2022-11-19T13:21:31.093Z,82.92
2022-11-19T13:22:31.137Z,82.96
2022-11-19T13:23:30.992Z,83.10
2022-11-19T13:24:31.059Z,82.60
2022-11-19T13:25:30.963Z,82.75
2022-11-19T13:26:31.022Z,82.87
2022-11-19T13:27:31.173Z,82.85
2022-11-19T13:28:30.923Z,82.90
2022-11-19T13:29:30.993Z,82.98
2022-11-19T13:30:30.892Z,82.98
2022-11-19T13:31:30.968Z,82.96
2022-11-19T13:32:30.990Z,82.99
2022-11-19T13:33:30.854Z,83.11
2022-11-19T13:34:30.961Z,83.18
2022-11-19T13:35:30.830Z,83.24
2022-11-19T13:36:30.897Z,83.31
2022-11-19T13:37:30.801Z,82.97
2022-11-19T13:38:30.868Z,82.36
2022-11-19T13:39:30.778Z,82.28
2022-11-19T13:40:30.880Z,82.08
2022-11-19T13:41:30.745Z,82.18
2022-11-19T13:42:30.853Z,82.22
2022-11-19T13:43:32.453Z,82.08
2022-11-19T13:44:30.797Z,82.11
2022-11-19T13:45:31.067Z,82.30
2022-11-19T13:46:30.674Z,82.48
2022-11-19T13:47:30.738Z,82.41
2022-11-19T13:48:30.650Z,82.58
2022-11-19T13:49:30.710Z,82.63
2022-11-19T13:50:30.624Z,82.63
2022-11-19T13:51:30.858Z,82.64
2022-11-19T13:52:30.590Z,82.85
2022-11-19T13:53:30.660Z,82.88
2022-11-19T13:54:30.566Z,82.83
2022-11-19T13:55:30.730Z,82.51
2022-11-19T13:56:30.536Z,82.45
2022-11-19T13:57:30.747Z,83.03
2022-11-19T13:58:33.021Z,82.99
2022-11-19T13:59:30.500Z,83.04
2022-11-19T14:00:30.569Z,83.27
2022-11-19T14:01:30.512Z,83.19
2022-11-19T14:02:30.542Z,83.05
2022-11-19T14:03:30.449Z,83.15
2022-11-19T14:04:30.566Z,83.25
2022-11-19T14:05:30.426Z,83.40
2022-11-19T14:06:30.589Z,83.78
2022-11-19T14:07:31.420Z,83.51
2022-11-19T14:08:30.465Z,83.39
2022-11-19T14:09:30.370Z,83.62
2022-11-19T14:10:30.428Z,83.48
2022-11-19T14:11:30.342Z,83.71
2022-11-19T14:12:30.411Z,83.99
2022-11-19T14:13:30.314Z,83.66
2022-11-19T14:14:30.479Z,83.76
2022-11-19T14:15:36.381Z,83.76
2022-11-19T14:16:33.553Z,83.59
2022-11-19T14:17:30.347Z,83.92
2022-11-19T14:18:30.250Z,84.05
2022-11-19T14:19:30.341Z,83.91
2022-11-19T14:20:30.218Z,83.90
2022-11-19T14:21:30.293Z,84.39
2022-11-19T14:22:30.192Z,84.43
2022-11-19T14:23:30.267Z,84.42
2022-11-19T14:24:30.173Z,84.43
2022-11-19T14:25:30.480Z,84.07
2022-11-19T14:26:30.139Z,83.79
2022-11-19T14:27:30.330Z,83.69
2022-11-19T14:28:30.165Z,83.93
2022-11-19T14:29:30.478Z,83.93
2022-11-19T14:30:30.084Z,83.97
2022-11-19T14:31:30.146Z,84.07
2022-11-19T14:32:30.060Z,84.00
2022-11-19T14:33:30.473Z,84.30
2022-11-19T14:34:30.036Z,84.48
2022-11-19T14:35:30.097Z,84.23
2022-11-19T14:36:30.002Z,84.43
2022-11-19T14:37:30.067Z,84.71
2022-11-19T14:38:29.977Z,84.64
2022-11-19T14:39:30.048Z,84.72
2022-11-19T14:40:29.952Z,84.72
2022-11-19T14:41:30.016Z,84.78
2022-11-19T14:42:30.048Z,84.94
2022-11-19T14:43:29.913Z,84.98
2022-11-19T14:44:29.980Z,84.98
2022-11-19T14:45:29.885Z,85.12
2022-11-19T14:46:29.991Z,85.08
2022-11-19T14:47:33.159Z,85.16
2022-11-19T14:48:29.934Z,85.07
2022-11-19T14:49:29.893Z,85.11
2022-11-19T14:50:29.890Z,85.43
2022-11-19T14:51:29.808Z,85.36
2022-11-19T14:52:29.868Z,85.31
2022-11-19T14:53:29.784Z,85.39
2022-11-19T14:54:32.048Z,85.53
2022-11-19T14:55:29.793Z,85.72
2022-11-19T14:56:29.833Z,86.00
2022-11-19T14:57:29.738Z,86.07
2022-11-19T14:58:30.792Z,86.19
2022-11-19T14:59:29.803Z,86.10
2022-11-19T15:00:29.692Z,86.10
2022-11-19T15:01:29.777Z,86.15
2022-11-19T15:02:29.659Z,86.13
2022-11-19T15:03:30.065Z,86.23
2022-11-19T15:04:29.634Z,86.24
2022-11-19T15:05:29.699Z,86.23
2022-11-19T15:06:29.606Z,86.16
2022-11-19T15:07:29.765Z,86.33
2022-11-19T15:08:29.585Z,86.37
2022-11-19T15:09:30.185Z,86.40
2022-11-19T15:10:29.554Z,86.27
2022-11-19T15:11:29.614Z,86.27
2022-11-19T15:12:29.523Z,86.25
2022-11-19T15:13:29.589Z,86.37
2022-11-19T15:14:29.502Z,86.44
2022-11-19T15:15:29.671Z,86.23
2022-11-19T15:16:29.483Z,86.29
2022-11-19T15:17:29.533Z,86.37
2022-11-19T15:18:29.444Z,86.65
2022-11-19T15:19:29.530Z,86.75
2022-11-19T15:20:29.410Z,86.78
2022-11-19T15:21:29.495Z,86.84
2022-11-19T15:22:29.402Z,86.73
2022-11-19T15:23:29.902Z,86.71
2022-11-19T15:24:29.361Z,86.93
2022-11-19T15:25:29.425Z,87.09
2022-11-19T15:26:29.344Z,87.18
2022-11-19T15:27:29.407Z,87.24
2022-11-19T15:28:29.309Z,87.15
2022-11-19T15:29:29.370Z,87.06
2022-11-19T15:30:29.284Z,87.14
2022-11-19T15:31:29.357Z,87.27
2022-11-19T15:32:29.257Z,87.30
2022-11-19T15:33:29.350Z,87.35
2022-11-19T15:34:38.499Z,87.35
2022-11-19T15:35:29.295Z,87.48
2022-11-19T15:36:29.193Z,87.28
2022-11-19T15:37:29.258Z,87.26
2022-11-19T15:38:29.365Z,87.34
2022-11-19T15:39:29.159Z,87.32
2022-11-19T15:40:29.221Z,87.26
2022-11-19T15:41:29.132Z,87.21
2022-11-19T15:42:29.199Z,87.24
2022-11-19T15:43:29.113Z,87.21
2022-11-19T15:44:29.160Z,87.23
2022-11-19T15:45:29.080Z,87.25
2022-11-19T15:46:30.576Z,87.22
2022-11-19T15:47:29.060Z,87.27
2022-11-19T15:48:29.128Z,87.17
2022-11-19T15:49:29.032Z,87.15
2022-11-19T15:50:29.154Z,87.14
2022-11-19T15:51:29.004Z,87.19
2022-11-19T15:52:29.062Z,87.16
2022-11-19T15:53:29.115Z,87.27
2022-11-19T15:54:28.960Z,87.43
2022-11-19T15:55:29.051Z,87.44
2022-11-19T15:56:28.937Z,87.44
2022-11-19T15:57:29.151Z,87.41
2022-11-19T15:58:28.908Z,87.41
2022-11-19T15:59:28.971Z,87.40
2022-11-19T16:00:28.880Z,87.48
2022-11-19T16:01:29.048Z,87.52
2022-11-19T16:02:28.855Z,87.55
2022-11-19T16:03:28.927Z,87.51
2022-11-19T16:04:29.156Z,87.53
2022-11-19T16:05:28.815Z,87.56
2022-11-19T16:06:29.027Z,87.57
2022-11-19T16:07:28.853Z,87.60
2022-11-19T16:08:28.898Z,87.71
2022-11-19T16:09:28.764Z,87.70
2022-11-19T16:10:29.825Z,87.76
2022-11-19T16:11:28.809Z,87.73
2022-11-19T16:12:28.721Z,87.67
2022-11-19T16:13:28.849Z,87.77
2022-11-19T16:14:28.694Z,87.75
2022-11-19T16:15:28.769Z,87.79
2022-11-19T16:16:28.665Z,87.73
2022-11-19T16:17:29.733Z,87.78
2022-11-19T16:18:28.773Z,87.75
2022-11-19T16:19:28.636Z,87.67
2022-11-19T16:20:28.713Z,87.66
2022-11-19T16:21:28.602Z,87.73
2022-11-19T16:22:28.670Z,87.75
2022-11-19T16:23:28.580Z,87.71
2022-11-19T16:24:31.751Z,87.75
2022-11-19T16:25:28.674Z,87.78
2022-11-19T16:26:28.542Z,87.76
2022-11-19T16:27:28.607Z,87.91
2022-11-19T16:28:28.508Z,87.99
2022-11-19T16:29:28.572Z,88.04
2022-11-19T16:30:28.481Z,87.98
2022-11-19T16:31:28.567Z,87.96
2022-11-19T16:32:28.453Z,87.95
2022-11-19T16:33:28.516Z,87.96
2022-11-19T16:34:28.427Z,87.95
2022-11-19T16:35:28.510Z,88.01
2022-11-19T16:36:28.399Z,88.32
2022-11-19T16:37:28.464Z,88.32
2022-11-19T16:38:28.372Z,88.39
2022-11-19T16:39:28.445Z,88.36
2022-11-19T16:40:28.345Z,88.30
2022-11-19T16:41:28.422Z,88.38
2022-11-19T16:42:28.320Z,88.40
2022-11-19T16:43:28.440Z,88.22
2022-11-19T16:44:28.338Z,88.17
2022-11-19T16:45:28.374Z,88.12
2022-11-19T16:46:32.890Z,88.19
2022-11-19T16:47:28.251Z,88.29
2022-11-19T16:48:28.315Z,88.27
2022-11-19T16:49:28.358Z,88.50
2022-11-19T16:50:28.217Z,88.62
2022-11-19T16:51:28.276Z,88.46
2022-11-19T16:52:28.204Z,88.42
2022-11-19T16:53:28.276Z,88.44
2022-11-19T16:54:28.160Z,88.48
2022-11-19T16:55:28.221Z,88.69
2022-11-19T16:56:28.133Z,88.35
2022-11-19T16:57:28.191Z,88.22
2022-11-19T16:58:28.108Z,88.09
2022-11-19T16:59:28.166Z,88.16
2022-11-19T17:00:28.081Z,88.62
2022-11-19T17:01:30.218Z,88.62
2022-11-19T17:02:28.056Z,88.58
2022-11-19T17:03:28.119Z,88.46
2022-11-19T17:04:28.038Z,88.51
2022-11-19T17:05:28.113Z,88.59
2022-11-19T17:06:28.004Z,88.69
2022-11-19T17:07:28.195Z,88.59
2022-11-19T17:08:27.978Z,88.57
2022-11-19T17:09:28.044Z,88.55
2022-11-19T17:10:27.953Z,88.56
2022-11-19T17:11:28.007Z,88.59
2022-11-19T17:12:27.927Z,88.60
2022-11-19T17:13:27.992Z,88.71
2022-11-19T17:14:27.895Z,88.68
2022-11-19T17:15:27.960Z,88.65
2022-11-19T17:16:28.195Z,88.61
2022-11-19T17:17:27.850Z,88.63
2022-11-19T17:18:28.387Z,88.68
2022-11-19T17:19:27.829Z,88.67
2022-11-19T17:20:27.937Z,88.53
2022-11-19T17:21:27.801Z,88.42
2022-11-19T17:22:27.864Z,88.37
2022-11-19T17:23:27.772Z,88.43
2022-11-19T17:24:28.648Z,88.41
2022-11-19T17:25:27.744Z,88.49
2022-11-19T17:26:27.867Z,88.44
2022-11-19T17:27:27.723Z,88.43
2022-11-19T17:28:27.782Z,88.42
2022-11-19T17:29:27.693Z,88.37
2022-11-19T17:30:27.755Z,88.33
2022-11-19T17:31:27.665Z,88.39
2022-11-19T17:32:27.728Z,88.48
2022-11-19T17:33:27.849Z,88.39
2022-11-19T17:34:27.711Z,88.32
2022-11-19T17:35:27.610Z,88.21
2022-11-19T17:36:27.878Z,88.49
2022-11-19T17:37:27.584Z,88.51
2022-11-19T17:38:27.694Z,88.51
2022-11-19T17:39:27.557Z,88.47
2022-11-19T17:40:27.620Z,88.73
2022-11-19T17:41:27.528Z,88.75
2022-11-19T17:42:27.644Z,88.70
2022-11-19T17:43:27.502Z,88.74
2022-11-19T17:44:27.640Z,88.80
2022-11-19T17:45:27.477Z,88.84
2022-11-19T17:46:27.593Z,88.71
2022-11-19T17:47:27.449Z,88.53
2022-11-19T17:48:27.517Z,88.60
2022-11-19T17:49:27.426Z,88.74
2022-11-19T17:50:27.536Z,88.53
2022-11-19T17:51:27.400Z,88.50
2022-11-19T17:52:27.546Z,88.63
2022-11-19T17:53:27.370Z,88.67
2022-11-19T17:54:27.441Z,88.77
2022-11-19T17:55:27.341Z,88.86
2022-11-19T17:56:27.416Z,88.90
2022-11-19T17:57:27.314Z,88.93
2022-11-19T17:58:27.407Z,88.96
2022-11-19T17:59:27.289Z,89.02
2022-11-19T18:00:27.403Z,89.02
2022-11-19T18:01:27.353Z,89.05
2022-11-19T18:02:27.489Z,89.00
2022-11-19T18:03:27.240Z,88.97
2022-11-19T18:04:27.305Z,88.95
2022-11-19T18:05:27.205Z,88.96
2022-11-19T18:06:27.269Z,89.01
2022-11-19T18:07:27.300Z,89.00
2022-11-19T18:08:27.261Z,88.94
2022-11-19T18:09:30.946Z,88.92
2022-11-19T18:10:27.219Z,88.97
2022-11-19T18:11:27.183Z,89.00
2022-11-19T18:12:27.195Z,88.91
2022-11-19T18:13:27.125Z,88.86
2022-11-19T18:14:27.166Z,88.87
2022-11-19T18:15:27.097Z,88.92
2022-11-19T18:16:27.136Z,88.92
2022-11-19T18:17:27.046Z,88.94
2022-11-19T18:18:27.122Z,88.91
2022-11-19T18:19:27.023Z,88.78
2022-11-19T18:20:27.184Z,88.79
2022-11-19T18:21:26.999Z,88.89
2022-11-19T18:22:27.109Z,89.05
2022-11-19T18:23:26.984Z,89.08
2022-11-19T18:24:27.139Z,89.04
2022-11-19T18:25:26.943Z,88.94
2022-11-19T18:26:27.063Z,88.84
2022-11-19T18:27:26.953Z,88.85
2022-11-19T18:28:27.083Z,88.88
2022-11-19T18:29:26.898Z,88.92
2022-11-19T18:30:26.963Z,88.95
2022-11-19T18:31:26.863Z,88.98
2022-11-19T18:32:26.937Z,89.03
2022-11-19T18:33:26.865Z,89.02
2022-11-19T18:34:26.951Z,88.91
2022-11-19T18:35:26.812Z,88.87
2022-11-19T18:36:27.093Z,88.91
2022-11-19T18:37:26.976Z,88.86
2022-11-19T18:38:26.909Z,88.91
2022-11-19T18:39:26.781Z,88.96
2022-11-19T18:40:26.832Z,88.97
2022-11-19T18:41:26.727Z,88.92
2022-11-19T18:42:26.791Z,88.76
2022-11-19T18:43:26.701Z,88.73
2022-11-19T18:44:26.998Z,88.85
2022-11-19T18:45:26.680Z,88.89
2022-11-19T18:46:26.992Z,88.91
2022-11-19T18:47:26.649Z,88.91
2022-11-19T18:48:26.832Z,88.93
2022-11-19T18:49:26.621Z,88.87
2022-11-19T18:50:29.779Z,88.87
2022-11-19T18:51:26.740Z,88.91
2022-11-19T18:52:26.585Z,89.03
2022-11-19T18:53:26.652Z,89.02
2022-11-19T18:54:26.557Z,88.96
2022-11-19T18:55:26.614Z,88.84
2022-11-19T18:56:26.529Z,88.88
2022-11-19T18:57:26.598Z,88.87
2022-11-19T18:58:26.496Z,88.86
2022-11-19T18:59:26.572Z,88.88
2022-11-19T19:00:26.913Z,88.95
2022-11-19T19:01:26.495Z,89.16
2022-11-19T19:02:26.546Z,89.21
2022-11-19T19:03:26.445Z,89.21
2022-11-19T19:04:26.749Z,89.18
2022-11-19T19:05:26.407Z,89.19
2022-11-19T19:06:26.473Z,89.20
2022-11-19T19:07:26.435Z,89.15
2022-11-19T19:08:26.555Z,89.10
2022-11-19T19:09:26.639Z,89.21
2022-11-19T19:10:26.528Z,89.20
2022-11-19T19:11:26.331Z,89.24
2022-11-19T19:12:26.452Z,89.22
2022-11-19T19:13:26.302Z,89.15
2022-11-19T19:14:26.402Z,89.11
2022-11-19T19:15:26.272Z,89.03
2022-11-19T19:16:26.338Z,89.07
2022-11-19T19:17:26.255Z,89.08
2022-11-19T19:18:26.418Z,89.07
2022-11-19T19:19:26.222Z,89.04
2022-11-19T19:20:26.281Z,89.06
2022-11-19T19:21:26.195Z,89.00
2022-11-19T19:22:26.335Z,89.02
2022-11-19T19:23:26.232Z,89.04
2022-11-19T19:24:26.230Z,89.07
2022-11-19T19:25:26.147Z,89.10
2022-11-19T19:26:26.223Z,89.01
2022-11-19T19:27:26.121Z,89.00
2022-11-19T19:28:26.227Z,88.90
2022-11-19T19:29:26.148Z,88.96
2022-11-19T19:30:26.159Z,89.00
2022-11-19T19:31:26.061Z,88.97
2022-11-19T19:32:26.122Z,88.95
2022-11-19T19:33:26.035Z,89.01
2022-11-19T19:34:26.119Z,88.92
2022-11-19T19:35:26.006Z,88.88
2022-11-19T19:36:26.076Z,88.96
2022-11-19T19:37:25.975Z,88.91
2022-11-19T19:38:26.050Z,88.92
2022-11-19T19:39:26.140Z,88.92
2022-11-19T19:40:26.014Z,88.94
2022-11-19T19:41:25.923Z,88.86
2022-11-19T19:42:25.996Z,88.84
2022-11-19T19:43:25.904Z,88.89
2022-11-19T19:44:25.958Z,88.89
2022-11-19T19:45:25.869Z,88.91
2022-11-19T19:46:25.938Z,89.00
2022-11-19T19:47:25.843Z,89.01
2022-11-19T19:48:25.914Z,89.07
2022-11-19T19:49:26.048Z,89.11
2022-11-19T19:50:25.805Z,89.16
2022-11-19T19:51:25.921Z,89.11
2022-11-19T19:52:25.780Z,89.03
2022-11-19T19:53:25.931Z,88.96
2022-11-19T19:54:25.752Z,88.91
2022-11-19T19:55:25.811Z,88.89
2022-11-19T19:56:25.725Z,88.88
2022-11-19T19:57:25.783Z,88.84
2022-11-19T19:58:28.125Z,88.87
2022-11-19T19:59:25.686Z,88.92
2022-11-19T20:00:25.755Z,88.97
2022-11-19T20:01:25.764Z,88.88
2022-11-19T20:02:25.750Z,88.91
2022-11-19T20:03:25.805Z,88.94
2022-11-19T20:04:25.753Z,88.87
2022-11-19T20:05:25.602Z,88.81
2022-11-19T20:06:25.665Z,88.79
2022-11-19T20:07:25.643Z,88.81
2022-11-19T20:08:29.393Z,88.82
2022-11-19T20:09:25.764Z,88.84
2022-11-19T20:10:25.623Z,88.77
2022-11-19T20:11:25.523Z,88.82
2022-11-19T20:12:25.596Z,88.87
2022-11-19T20:13:25.495Z,88.93
2022-11-19T20:14:25.562Z,88.75
2022-11-19T20:15:25.477Z,88.76
2022-11-19T20:16:25.545Z,88.90
2022-11-19T20:17:25.442Z,88.90
2022-11-19T20:18:25.524Z,88.90
2022-11-19T20:19:25.689Z,88.93
2022-11-19T20:20:25.488Z,88.88
2022-11-19T20:21:25.389Z,88.75
2022-11-19T20:22:25.468Z,88.67
2022-11-19T20:23:25.362Z,88.61
2022-11-19T20:24:25.455Z,88.56
2022-11-19T20:25:25.335Z,88.55
2022-11-19T20:26:25.510Z,88.54
2022-11-19T20:27:25.309Z,88.32
2022-11-19T20:28:25.382Z,88.14
2022-11-19T20:29:25.282Z,88.05
2022-11-19T20:30:25.355Z,87.87
2022-11-19T20:31:25.254Z,87.96
2022-11-19T20:32:25.319Z,88.41
2022-11-19T20:33:25.227Z,88.90
2022-11-19T20:34:25.456Z,88.83
2022-11-19T20:35:25.202Z,88.42
2022-11-19T20:36:25.266Z,88.46
2022-11-19T20:37:25.174Z,88.31
2022-11-19T20:38:25.248Z,88.31
2022-11-19T20:39:25.148Z,88.26
2022-11-19T20:40:25.210Z,88.12
2022-11-19T20:41:25.119Z,88.27
2022-11-19T20:42:25.181Z,88.61
2022-11-19T20:43:25.088Z,88.91
2022-11-19T20:44:25.154Z,88.75
2022-11-19T20:45:25.271Z,88.90
2022-11-19T20:46:25.052Z,88.65
2022-11-19T20:47:25.121Z,88.29
2022-11-19T20:48:25.033Z,88.00
2022-11-19T20:49:25.387Z,87.94
2022-11-19T20:50:24.999Z,87.51
2022-11-19T20:51:26.959Z,87.49
2022-11-19T20:52:24.976Z,87.64
2022-11-19T20:53:25.035Z,88.04
2022-11-19T20:54:24.951Z,88.28
2022-11-19T20:55:25.018Z,88.58
2022-11-19T20:56:24.937Z,88.63
2022-11-19T20:57:24.992Z,88.52
2022-11-19T20:58:24.929Z,88.40
2022-11-19T20:59:25.540Z,88.25
2022-11-19T21:00:24.868Z,88.16
2022-11-19T21:01:29.818Z,88.03
2022-11-19T21:02:24.866Z,88.01
2022-11-19T21:03:24.902Z,88.08
2022-11-19T21:04:27.941Z,87.97
2022-11-19T21:05:24.805Z,87.93
2022-11-19T21:06:24.878Z,87.82
2022-11-19T21:07:24.870Z,87.78
2022-11-19T21:08:24.990Z,87.85
2022-11-19T21:09:25.410Z,87.95
2022-11-19T21:10:24.802Z,87.99
2022-11-19T21:11:24.721Z,88.04
2022-11-19T21:12:24.787Z,88.07
2022-11-19T21:13:24.816Z,88.14
2022-11-19T21:14:24.692Z,88.12
2022-11-19T21:15:24.748Z,88.06
2022-11-19T21:16:24.649Z,88.10
2022-11-19T21:17:24.774Z,88.14
2022-11-19T21:18:24.665Z,88.15
2022-11-19T21:19:24.928Z,88.09
2022-11-19T21:20:26.873Z,88.08
2022-11-19T21:21:24.585Z,88.15
2022-11-19T21:22:24.654Z,88.04
2022-11-19T21:23:24.563Z,88.06
2022-11-19T21:24:24.650Z,88.11
2022-11-19T21:25:24.532Z,88.13
2022-11-19T21:26:24.598Z,88.16
2022-11-19T21:27:24.504Z,88.17
2022-11-19T21:28:24.577Z,88.19
2022-11-19T21:29:24.472Z,88.10
2022-11-19T21:30:24.530Z,88.24
2022-11-19T21:31:24.442Z,88.29
2022-11-19T21:32:24.501Z,88.32
2022-11-19T21:33:24.415Z,88.40
2022-11-19T21:34:24.524Z,88.36
2022-11-19T21:35:24.389Z,88.32
2022-11-19T21:36:24.444Z,88.33
2022-11-19T21:37:24.363Z,88.29
2022-11-19T21:38:24.429Z,88.20
2022-11-19T21:39:24.684Z,88.09
2022-11-19T21:40:24.593Z,87.99
2022-11-19T21:41:24.307Z,87.88
2022-11-19T21:42:24.375Z,87.78
2022-11-19T21:43:24.290Z,87.78
2022-11-19T21:44:24.361Z,87.82
2022-11-19T21:45:24.276Z,87.75
2022-11-19T21:46:24.322Z,87.63
2022-11-19T21:47:24.237Z,87.58
2022-11-19T21:48:24.291Z,87.57
2022-11-19T21:49:24.387Z,87.60
2022-11-19T21:50:24.275Z,87.57
2022-11-19T21:51:25.142Z,87.57
2022-11-19T21:52:24.248Z,87.59
2022-11-19T21:53:24.174Z,87.55
2022-11-19T21:54:24.215Z,87.45
2022-11-19T21:55:24.126Z,87.37
2022-11-19T21:56:24.182Z,87.35
2022-11-19T21:57:24.100Z,87.40
2022-11-19T21:58:24.170Z,87.39
2022-11-19T21:59:24.138Z,87.37
2022-11-19T22:00:30.153Z,87.35
2022-11-19T22:01:24.048Z,87.36
2022-11-19T22:02:24.112Z,87.37
2022-11-19T22:03:24.022Z,87.29
2022-11-19T22:04:24.076Z,87.00
2022-11-19T22:05:23.993Z,86.95
2022-11-19T22:06:24.050Z,86.94
2022-11-19T22:07:24.027Z,86.20
2022-11-19T22:08:24.035Z,86.20
2022-11-19T22:09:23.937Z,86.35
2022-11-19T22:10:26.745Z,86.56
2022-11-19T22:11:23.911Z,86.78
2022-11-19T22:12:23.969Z,86.97
2022-11-19T22:13:23.890Z,87.07
2022-11-19T22:14:23.958Z,87.18
2022-11-19T22:15:23.858Z,87.32
2022-11-19T22:16:23.918Z,87.41
2022-11-19T22:17:25.824Z,87.44
2022-11-19T22:18:23.901Z,87.47
2022-11-19T22:19:23.995Z,87.32
2022-11-19T22:20:23.877Z,87.29
2022-11-19T22:21:23.781Z,87.42
2022-11-19T22:22:23.855Z,87.47
2022-11-19T22:23:24.540Z,87.53
2022-11-19T22:24:23.814Z,87.66
2022-11-19T22:25:23.729Z,87.75
2022-11-19T22:26:23.871Z,87.77
2022-11-19T22:27:23.697Z,87.78
2022-11-19T22:28:23.767Z,87.84
2022-11-19T22:29:23.774Z,87.86
2022-11-19T22:30:23.729Z,87.87
2022-11-19T22:31:23.646Z,87.94
2022-11-19T22:32:23.775Z,88.01
2022-11-19T22:33:23.617Z,88.00
2022-11-19T22:34:23.680Z,87.97
2022-11-19T22:35:23.591Z,87.92
2022-11-19T22:36:23.759Z,87.96
2022-11-19T22:37:23.563Z,87.99
2022-11-19T22:38:23.691Z,88.04
2022-11-19T22:39:23.806Z,88.12
2022-11-19T22:40:23.595Z,88.09
2022-11-19T22:41:23.513Z,88.12
2022-11-19T22:42:23.567Z,88.21
2022-11-19T22:43:23.480Z,88.21
2022-11-19T22:44:23.538Z,88.23
2022-11-19T22:45:23.454Z,88.31
2022-11-19T22:46:23.520Z,88.28
2022-11-19T22:47:23.429Z,88.36
2022-11-19T22:48:23.496Z,88.39
2022-11-19T22:49:23.398Z,88.42
2022-11-19T22:50:23.468Z,88.40
2022-11-19T22:51:23.375Z,88.30
2022-11-19T22:52:23.429Z,88.25
2022-11-19T22:53:23.350Z,88.17
2022-11-19T22:54:23.403Z,88.24
2022-11-19T22:55:23.323Z,88.25
2022-11-19T22:56:23.586Z,88.27
2022-11-19T22:57:23.294Z,88.37
2022-11-19T22:58:23.361Z,88.42
2022-11-19T22:59:23.453Z,88.55
2022-11-19T23:00:29.390Z,88.54
2022-11-19T23:01:23.349Z,88.45
2022-11-19T23:02:23.300Z,88.51
2022-11-19T23:03:23.216Z,88.59
2022-11-19T23:04:23.564Z,88.69
2022-11-19T23:05:23.389Z,88.86
2022-11-19T23:06:23.245Z,89.03
2022-11-19T23:07:23.221Z,89.03
2022-11-19T23:08:23.384Z,88.97
2022-11-19T23:09:23.533Z,89.02
2022-11-19T23:10:23.201Z,89.14
2022-11-19T23:11:23.107Z,89.28
2022-11-19T23:12:23.197Z,89.34
2022-11-19T23:13:23.084Z,89.39
2022-11-19T23:14:23.150Z,89.41
2022-11-19T23:15:23.056Z,89.47
2022-11-19T23:16:23.191Z,89.58
2022-11-19T23:17:28.016Z,89.64
2022-11-19T23:18:23.011Z,89.78
2022-11-19T23:19:23.376Z,89.84
2022-11-19T23:20:22.983Z,89.86
2022-11-19T23:21:23.046Z,89.86
2022-11-19T23:22:22.957Z,89.91
2022-11-19T23:23:23.047Z,89.93
2022-11-19T23:24:22.935Z,89.94
2022-11-19T23:25:22.991Z,89.90
2022-11-19T23:26:22.900Z,89.93
2022-11-19T23:27:22.966Z,89.92
2022-11-19T23:28:22.876Z,89.96
2022-11-19T23:29:23.205Z,89.99
2022-11-19T23:30:22.853Z,90.00
2022-11-19T23:31:22.940Z,89.96
2022-11-19T23:32:22.824Z,89.93
2022-11-19T23:33:22.898Z,89.83
2022-11-19T23:34:22.794Z,89.74
2022-11-19T23:35:22.867Z,89.65
2022-11-19T23:36:22.769Z,89.71
2022-11-19T23:37:22.884Z,89.69
2022-11-19T23:38:22.741Z,89.73
2022-11-19T23:39:23.247Z,89.73
2022-11-19T23:40:22.714Z,89.75
2022-11-19T23:41:22.794Z,89.74
2022-11-19T23:42:22.687Z,89.77
2022-11-19T23:43:22.751Z,89.75
2022-11-19T23:44:22.659Z,89.73
2022-11-19T23:45:22.725Z,89.68
2022-11-19T23:46:22.634Z,89.66
2022-11-19T23:47:22.697Z,89.61
2022-11-19T23:48:22.608Z,89.66
2022-11-19T23:49:22.988Z,89.64
2022-11-19T23:50:22.580Z,89.65
2022-11-19T23:51:22.646Z,89.76
2022-11-19T23:52:22.551Z,89.75
2022-11-19T23:53:22.624Z,89.76
2022-11-19T23:54:22.524Z,89.77
2022-11-19T23:55:22.592Z,89.77
2022-11-19T23:56:22.502Z,89.79
2022-11-19T23:57:22.669Z,89.77
2022-11-19T23:58:22.475Z,89.72
2022-11-19T23:59:25.603Z,89.54
